createdAt,value
2022-11-09T00:00:08.248Z,11.05
2022-11-09T00:01:09.899Z,11.10
2022-11-09T00:02:11.556Z,11.13
2022-11-09T00:03:13.685Z,11.13
2022-11-09T00:04:15.403Z,11.14
2022-11-09T00:05:17.171Z,11.17
2022-11-09T00:06:18.828Z,11.16
2022-11-09T00:07:20.582Z,11.17
2022-11-09T00:08:22.521Z,11.17
2022-11-09T00:09:24.226Z,11.18
2022-11-09T00:10:25.925Z,11.17
2022-11-09T00:11:27.778Z,11.17
2022-11-09T00:12:29.441Z,11.16
2022-11-09T00:13:31.236Z,11.17
2022-11-09T00:14:33.245Z,11.16
2022-11-09T00:15:34.914Z,11.18
2022-11-09T00:16:36.619Z,11.17
2022-11-09T00:17:38.285Z,11.17
2022-11-09T00:18:41.438Z,11.19
2022-11-09T00:19:43.181Z,11.20
2022-11-09T00:20:48.047Z,11.22
2022-11-09T00:21:50.083Z,11.18
2022-11-09T00:22:51.747Z,11.18
2022-11-09T00:23:53.551Z,11.18
2022-11-09T00:24:55.198Z,11.19
2022-11-09T00:26:01.119Z,11.19
2022-11-09T00:27:02.784Z,11.17
2022-11-09T00:28:04.629Z,11.18
2022-11-09T00:29:06.476Z,11.16
2022-11-09T00:30:10.586Z,11.14
2022-11-09T00:31:20.537Z,11.14
2022-11-09T00:32:27.519Z,11.12
2022-11-09T00:33:29.553Z,11.11
2022-11-09T00:34:31.201Z,11.11
2022-11-09T00:35:33.568Z,11.08
2022-11-09T00:36:35.215Z,11.04
2022-11-09T00:37:36.934Z,11.05
2022-11-09T00:38:42.735Z,10.99
2022-11-09T00:39:44.448Z,10.99
2022-11-09T00:40:46.122Z,10.94
2022-11-09T00:41:47.779Z,10.92
2022-11-09T00:42:49.434Z,10.88
2022-11-09T00:43:51.904Z,10.88
2022-11-09T00:44:53.770Z,10.87
2022-11-09T00:45:55.465Z,10.82
2022-11-09T00:46:57.131Z,10.83
2022-11-09T00:47:58.814Z,10.82
2022-11-09T00:49:00.513Z,10.80
2022-11-09T00:50:02.160Z,10.79
2022-11-09T00:51:06.657Z,10.72
2022-11-09T00:52:08.747Z,10.75
2022-11-09T00:53:10.400Z,10.73
2022-11-09T00:54:12.658Z,10.66
2022-11-09T00:55:14.746Z,10.64
2022-11-09T00:56:16.480Z,10.59
2022-11-09T00:57:18.142Z,10.55
2022-11-09T00:58:19.871Z,10.55
2022-11-09T00:59:21.509Z,10.53
2022-11-09T01:00:26.344Z,10.51
2022-11-09T01:01:28.074Z,10.48
2022-11-09T01:02:29.836Z,10.48
2022-11-09T01:03:31.568Z,10.49
2022-11-09T01:04:33.325Z,10.47
2022-11-09T01:05:39.632Z,10.50
2022-11-09T01:06:41.447Z,10.51
2022-11-09T01:07:43.166Z,10.48
2022-11-09T01:08:45.870Z,10.51
2022-11-09T01:09:47.527Z,10.51
2022-11-09T01:10:49.475Z,10.48
2022-11-09T01:11:51.189Z,10.51
2022-11-09T01:12:52.808Z,10.50
2022-11-09T01:13:55.233Z,10.51
2022-11-09T01:14:56.945Z,10.50
2022-11-09T01:15:58.600Z,10.51
2022-11-09T01:17:00.262Z,10.52
2022-11-09T01:18:01.987Z,10.49
2022-11-09T01:19:04.053Z,10.39
2022-11-09T01:20:06.208Z,10.44
2022-11-09T01:21:11.012Z,10.45
2022-11-09T01:22:12.758Z,10.45
2022-11-09T01:23:16.742Z,10.43
2022-11-09T01:24:18.712Z,10.40
2022-11-09T01:25:20.346Z,10.39
2022-11-09T01:26:22.553Z,10.38
2022-11-09T01:27:24.266Z,10.37
2022-11-09T01:28:26.052Z,10.35
2022-11-09T01:29:27.758Z,10.36
2022-11-09T01:30:30.214Z,10.37
2022-11-09T01:31:32.022Z,10.36
2022-11-09T01:32:33.697Z,10.37
2022-11-09T01:33:36.052Z,10.37
2022-11-09T01:34:37.679Z,10.35
2022-11-09T01:35:40.653Z,10.29
2022-11-09T01:36:42.323Z,10.31
2022-11-09T01:37:44.021Z,10.23
2022-11-09T01:38:46.065Z,10.25
2022-11-09T01:39:47.709Z,10.23
2022-11-09T01:40:49.365Z,10.25
2022-11-09T01:41:51.053Z,10.20
2022-11-09T01:42:52.758Z,10.23
2022-11-09T01:44:03.468Z,10.22
2022-11-09T01:45:17.355Z,10.22
2022-11-09T01:46:22.933Z,10.19
2022-11-09T01:47:25.883Z,10.20
2022-11-09T01:48:41.618Z,10.16
2022-11-09T01:49:50.824Z,10.15
2022-11-09T01:50:58.635Z,10.13
2022-11-09T01:52:26.568Z,10.12
2022-11-09T01:53:32.804Z,10.11
2022-11-09T01:54:48.287Z,10.04
2022-11-09T01:55:53.205Z,10.05
2022-11-09T01:56:59.576Z,10.06
2022-11-09T01:58:07.705Z,10.01
2022-11-09T01:59:15.050Z,10.03
2022-11-09T02:00:17.794Z,10.01
2022-11-09T02:01:19.579Z,9.98
2022-11-09T02:02:21.973Z,9.85
2022-11-09T02:03:29.731Z,9.98
2022-11-09T02:04:43.749Z,9.93
2022-11-09T02:05:46.475Z,9.90
2022-11-09T02:06:49.456Z,9.83
2022-11-09T02:07:52.300Z,9.78
2022-11-09T02:08:58.572Z,9.76
2022-11-09T02:10:12.696Z,9.77
2022-11-09T02:11:17.960Z,9.79
2022-11-09T02:12:20.386Z,9.77
2022-11-09T02:13:25.182Z,9.78
2022-11-09T02:14:29.564Z,9.78
2022-11-09T02:15:31.229Z,9.76
2022-11-09T02:16:33.776Z,9.75
2022-11-09T02:17:36.338Z,9.74
2022-11-09T02:18:52.148Z,9.77
2022-11-09T02:19:53.830Z,9.78
2022-11-09T02:20:58.164Z,9.79
2022-11-09T02:21:59.974Z,9.79
2022-11-09T02:23:01.786Z,9.78
2022-11-09T02:24:03.511Z,9.81
2022-11-09T02:25:05.889Z,9.77
2022-11-09T02:26:12.347Z,9.72
2022-11-09T02:27:14.048Z,9.75
2022-11-09T02:28:17.608Z,9.71
2022-11-09T02:29:35.632Z,9.74
2022-11-09T02:30:37.503Z,9.73
2022-11-09T02:31:44.927Z,9.72
2022-11-09T02:32:46.668Z,9.73
2022-11-09T02:33:51.316Z,9.75
2022-11-09T02:34:53.045Z,9.75
2022-11-09T02:35:54.754Z,9.75
2022-11-09T02:36:56.444Z,9.72
2022-11-09T02:37:58.442Z,9.74
2022-11-09T02:39:00.178Z,9.73
2022-11-09T02:40:07.702Z,9.68
2022-11-09T02:41:11.989Z,9.59
2022-11-09T02:42:21.198Z,9.57
2022-11-09T02:43:23.628Z,9.48
2022-11-09T02:44:26.406Z,9.52
2022-11-09T02:45:28.116Z,9.52
2022-11-09T02:46:35.607Z,9.55
2022-11-09T02:47:37.261Z,9.56
2022-11-09T02:48:38.920Z,9.58
2022-11-09T02:49:40.603Z,9.51
2022-11-09T02:50:42.387Z,9.59
2022-11-09T02:51:44.171Z,9.58
2022-11-09T02:52:45.830Z,9.62
2022-11-09T02:53:47.487Z,9.62
2022-11-09T02:54:49.170Z,9.63
2022-11-09T02:55:51.046Z,9.64
2022-11-09T02:56:52.740Z,9.66
2022-11-09T02:57:54.394Z,9.62
2022-11-09T02:58:56.181Z,9.54
2022-11-09T02:59:57.861Z,9.52
2022-11-09T03:00:59.541Z,9.53
2022-11-09T03:02:01.727Z,9.50
2022-11-09T03:03:04.253Z,9.49
2022-11-09T03:04:05.961Z,9.49
2022-11-09T03:05:08.112Z,9.50
2022-11-09T03:06:09.781Z,9.52
2022-11-09T03:07:11.520Z,9.53
2022-11-09T03:08:13.208Z,9.50
2022-11-09T03:09:14.902Z,9.51
2022-11-09T03:10:16.859Z,9.50
2022-11-09T03:11:18.547Z,9.52
2022-11-09T03:12:29.418Z,9.54
2022-11-09T03:13:31.103Z,9.54
2022-11-09T03:14:33.470Z,9.53
2022-11-09T03:15:35.594Z,9.55
2022-11-09T03:16:38.669Z,9.55
2022-11-09T03:17:40.699Z,9.54
2022-11-09T03:18:42.391Z,9.51
2022-11-09T03:19:44.767Z,9.52
2022-11-09T03:20:46.395Z,9.54
2022-11-09T03:21:48.132Z,9.55
2022-11-09T03:22:49.950Z,9.48
2022-11-09T03:23:51.724Z,9.52
2022-11-09T03:24:53.369Z,9.54
2022-11-09T03:25:55.020Z,9.53
2022-11-09T03:26:56.674Z,9.55
2022-11-09T03:28:02.881Z,9.55
2022-11-09T03:29:04.608Z,9.54
2022-11-09T03:30:06.970Z,9.54
2022-11-09T03:31:09.049Z,9.55
2022-11-09T03:32:10.931Z,9.49
2022-11-09T03:33:14.432Z,9.52
2022-11-09T03:34:16.059Z,9.51
2022-11-09T03:35:17.866Z,9.53
2022-11-09T03:36:19.519Z,9.53
2022-11-09T03:37:21.227Z,9.49
2022-11-09T03:38:23.406Z,9.42
2022-11-09T03:39:25.238Z,9.40
2022-11-09T03:40:26.927Z,9.37
2022-11-09T03:41:28.567Z,9.31
2022-11-09T03:42:30.239Z,9.33
2022-11-09T03:43:31.960Z,9.36
2022-11-09T03:44:33.601Z,9.33
2022-11-09T03:45:35.265Z,9.30
2022-11-09T03:46:37.021Z,9.27
2022-11-09T03:47:42.996Z,9.31
2022-11-09T03:48:44.694Z,9.30
2022-11-09T03:49:46.391Z,9.25
2022-11-09T03:50:48.117Z,9.26
2022-11-09T03:51:50.910Z,9.29
2022-11-09T03:52:52.768Z,9.33
2022-11-09T03:53:54.456Z,9.28
2022-11-09T03:54:56.122Z,9.31
2022-11-09T03:55:58.377Z,9.33
2022-11-09T03:57:00.046Z,9.33
2022-11-09T03:58:02.229Z,9.31
2022-11-09T03:59:03.941Z,9.33
2022-11-09T04:00:07.752Z,9.31
2022-11-09T04:01:10.966Z,9.34
2022-11-09T04:02:12.797Z,9.36
2022-11-09T04:03:14.483Z,9.33
2022-11-09T04:04:16.176Z,9.32
2022-11-09T04:05:17.973Z,9.31
2022-11-09T04:06:19.615Z,9.33
2022-11-09T04:07:21.247Z,9.34
2022-11-09T04:08:23.092Z,9.32
2022-11-09T04:09:24.759Z,9.33
2022-11-09T04:10:27.245Z,9.35
2022-11-09T04:11:28.926Z,9.28
2022-11-09T04:12:30.630Z,9.29
2022-11-09T04:13:32.308Z,9.24
2022-11-09T04:14:33.948Z,9.24
2022-11-09T04:15:36.459Z,9.24
2022-11-09T04:16:38.601Z,9.20
2022-11-09T04:17:40.948Z,9.17
2022-11-09T04:18:42.584Z,9.15
2022-11-09T04:19:44.239Z,9.13
2022-11-09T04:20:45.904Z,9.13
2022-11-09T04:21:47.566Z,9.11
2022-11-09T04:23:00.256Z,9.14
2022-11-09T04:24:01.956Z,9.18
2022-11-09T04:25:05.169Z,9.20
2022-11-09T04:26:06.960Z,9.21
2022-11-09T04:27:08.623Z,9.19
2022-11-09T04:28:12.808Z,9.22
2022-11-09T04:29:14.563Z,9.22
2022-11-09T04:30:16.461Z,9.20
2022-11-09T04:31:18.147Z,9.21
2022-11-09T04:32:19.797Z,9.15
2022-11-09T04:33:21.880Z,9.19
2022-11-09T04:34:23.882Z,9.18
2022-11-09T04:35:27.789Z,9.19
2022-11-09T04:36:29.419Z,9.16
2022-11-09T04:37:31.100Z,9.17
2022-11-09T04:38:33.066Z,9.18
2022-11-09T04:39:34.762Z,9.16
2022-11-09T04:40:36.825Z,9.14
2022-11-09T04:41:38.573Z,9.05
2022-11-09T04:42:40.207Z,9.09
2022-11-09T04:43:42.340Z,9.05
2022-11-09T04:44:43.990Z,9.05
2022-11-09T04:45:47.466Z,8.99
2022-11-09T04:46:49.128Z,8.95
2022-11-09T04:47:50.784Z,8.91
2022-11-09T04:48:52.552Z,8.96
2022-11-09T04:49:54.217Z,8.99
2022-11-09T04:51:01.454Z,9.01
2022-11-09T04:52:03.228Z,9.03
2022-11-09T04:53:09.806Z,8.99
2022-11-09T04:54:11.724Z,8.97
2022-11-09T04:55:13.345Z,8.96
2022-11-09T04:56:15.014Z,9.01
2022-11-09T04:57:16.665Z,9.01
2022-11-09T04:58:23.785Z,8.99
2022-11-09T04:59:26.543Z,8.98
2022-11-09T05:00:28.317Z,8.98
2022-11-09T05:01:30.062Z,8.99
2022-11-09T05:02:32.323Z,8.97
2022-11-09T05:03:34.793Z,8.98
2022-11-09T05:04:36.482Z,8.95
2022-11-09T05:05:44.076Z,8.88
2022-11-09T05:06:48.804Z,8.83
2022-11-09T05:07:50.479Z,8.81
2022-11-09T05:08:53.451Z,8.82
2022-11-09T05:09:55.163Z,8.85
2022-11-09T05:10:58.189Z,8.91
2022-11-09T05:11:59.847Z,8.92
2022-11-09T05:13:07.228Z,8.93
2022-11-09T05:14:08.888Z,8.96
2022-11-09T05:15:11.173Z,9.01
2022-11-09T05:16:13.259Z,9.03
2022-11-09T05:17:14.977Z,8.98
2022-11-09T05:18:16.647Z,9.07
2022-11-09T05:19:18.351Z,9.07
2022-11-09T05:20:20.145Z,9.09
2022-11-09T05:21:22.191Z,9.13
2022-11-09T05:22:42.577Z,9.14
2022-11-09T05:23:59.772Z,9.13
2022-11-09T05:25:01.537Z,9.12
2022-11-09T05:26:03.440Z,9.15
2022-11-09T05:27:05.191Z,9.15
2022-11-09T05:28:06.881Z,9.10
2022-11-09T05:29:10.669Z,9.14
2022-11-09T05:30:12.636Z,9.17
2022-11-09T05:31:14.420Z,9.19
2022-11-09T05:32:16.046Z,9.23
2022-11-09T05:33:18.175Z,9.21
2022-11-09T05:34:20.165Z,9.22
2022-11-09T05:35:21.826Z,9.23
2022-11-09T05:36:24.537Z,9.21
2022-11-09T05:37:26.232Z,9.24
2022-11-09T05:38:27.931Z,9.24
2022-11-09T05:39:29.587Z,9.26
2022-11-09T05:40:32.298Z,9.29
2022-11-09T05:41:33.947Z,9.35
2022-11-09T05:42:38.994Z,9.39
2022-11-09T05:43:41.375Z,9.44
2022-11-09T05:44:43.137Z,9.47
2022-11-09T05:45:45.134Z,9.50
2022-11-09T05:46:46.776Z,9.51
2022-11-09T05:47:48.564Z,9.57
2022-11-09T05:48:50.293Z,9.53
2022-11-09T05:49:51.975Z,9.62
2022-11-09T05:50:53.673Z,9.63
2022-11-09T05:51:55.305Z,9.66
2022-11-09T05:52:59.493Z,9.64
2022-11-09T05:54:01.126Z,9.64
2022-11-09T05:55:03.028Z,9.68
2022-11-09T05:56:05.947Z,9.69
2022-11-09T05:57:07.640Z,9.67
2022-11-09T05:58:09.526Z,9.63
2022-11-09T05:59:11.330Z,9.62
2022-11-09T06:00:14.011Z,9.72
2022-11-09T06:01:18.851Z,9.77
2022-11-09T06:02:20.859Z,9.81
2022-11-09T06:03:22.919Z,9.86
2022-11-09T06:04:24.932Z,9.87
2022-11-09T06:05:26.610Z,9.92
2022-11-09T06:06:30.067Z,9.92
2022-11-09T06:07:32.878Z,10.00
2022-11-09T06:08:35.016Z,10.05
2022-11-09T06:09:36.684Z,10.08
2022-11-09T06:10:38.726Z,10.09
2022-11-09T06:11:40.455Z,10.11
2022-11-09T06:12:42.081Z,10.14
2022-11-09T06:13:43.756Z,10.19
2022-11-09T06:14:45.452Z,10.24
2022-11-09T06:15:53.988Z,10.32
2022-11-09T06:16:55.733Z,10.34
2022-11-09T06:17:59.403Z,10.41
2022-11-09T06:19:01.251Z,10.46
2022-11-09T06:20:04.289Z,10.49
2022-11-09T06:21:06.410Z,10.58
2022-11-09T06:22:08.366Z,10.65
2022-11-09T06:23:10.082Z,10.67
2022-11-09T06:24:11.891Z,10.73
2022-11-09T06:25:13.612Z,10.72
2022-11-09T06:26:15.515Z,10.76
2022-11-09T06:27:17.157Z,10.81
2022-11-09T06:28:18.899Z,10.91
2022-11-09T06:29:20.556Z,10.98
2022-11-09T06:30:22.933Z,11.01
2022-11-09T06:31:24.605Z,11.03
2022-11-09T06:32:26.342Z,11.09
2022-11-09T06:33:30.771Z,11.14
2022-11-09T06:34:32.485Z,11.19
2022-11-09T06:35:34.164Z,11.22
2022-11-09T06:36:35.820Z,11.23
2022-11-09T06:37:37.647Z,11.33
2022-11-09T06:38:39.957Z,11.38
2022-11-09T06:39:41.623Z,11.42
2022-11-09T06:40:44.480Z,11.44
2022-11-09T06:41:47.628Z,11.48
2022-11-09T06:42:49.582Z,11.52
2022-11-09T06:43:51.277Z,11.55
2022-11-09T06:44:52.940Z,11.55
2022-11-09T06:45:55.273Z,11.62
2022-11-09T06:46:56.968Z,11.62
2022-11-09T06:48:00.356Z,11.66
2022-11-09T06:49:02.087Z,11.70
2022-11-09T06:50:04.009Z,11.73
2022-11-09T06:51:06.791Z,11.78
2022-11-09T06:52:08.493Z,11.81
2022-11-09T06:53:12.893Z,11.83
2022-11-09T06:54:14.551Z,11.85
2022-11-09T06:55:16.309Z,11.87
2022-11-09T06:56:18.047Z,11.88
2022-11-09T06:57:19.694Z,11.93
2022-11-09T06:58:22.169Z,11.97
2022-11-09T06:59:23.986Z,11.96
2022-11-09T07:00:27.712Z,11.95
2022-11-09T07:01:29.914Z,11.94
2022-11-09T07:02:31.832Z,11.99
2022-11-09T07:03:33.486Z,12.01
2022-11-09T07:04:35.127Z,12.07
2022-11-09T07:05:40.206Z,12.08
2022-11-09T07:06:42.197Z,12.17
2022-11-09T07:07:44.331Z,12.22
2022-11-09T07:08:45.965Z,12.31
2022-11-09T07:09:47.624Z,12.42
2022-11-09T07:10:49.380Z,12.52
2022-11-09T07:11:51.065Z,12.67
2022-11-09T07:12:52.739Z,12.88
2022-11-09T07:13:57.368Z,13.08
2022-11-09T07:14:59.472Z,13.21
2022-11-09T07:16:01.443Z,13.43
2022-11-09T07:17:03.190Z,13.71
2022-11-09T07:18:07.437Z,13.91
2022-11-09T07:19:09.098Z,14.09
2022-11-09T07:20:11.768Z,14.21
2022-11-09T07:21:14.541Z,14.35
2022-11-09T07:22:16.441Z,14.37
2022-11-09T07:23:18.693Z,14.63
2022-11-09T07:24:20.704Z,14.85
2022-11-09T07:25:22.898Z,15.07
2022-11-09T07:26:24.596Z,15.15
2022-11-09T07:27:28.120Z,15.27
2022-11-09T07:28:30.500Z,15.38
2022-11-09T07:29:32.189Z,15.56
2022-11-09T07:30:34.173Z,15.75
2022-11-09T07:31:35.819Z,15.88
2022-11-09T07:33:08.652Z,15.77
2022-11-09T07:34:04.850Z,15.87
2022-11-09T07:35:08.166Z,15.98
2022-11-09T07:36:09.885Z,16.22
2022-11-09T07:37:11.556Z,16.48
2022-11-09T07:38:15.855Z,16.83
2022-11-09T07:39:17.518Z,16.98
2022-11-09T07:40:19.912Z,17.20
2022-11-09T07:41:21.557Z,17.52
2022-11-09T07:42:24.182Z,17.70
2022-11-09T07:43:26.051Z,17.92
2022-11-09T07:44:27.727Z,17.84
2022-11-09T07:45:30.453Z,17.94
2022-11-09T07:46:32.494Z,18.09
2022-11-09T07:47:34.151Z,18.08
2022-11-09T07:48:35.805Z,18.09
2022-11-09T07:49:37.483Z,18.34
2022-11-09T07:50:40.506Z,18.58
2022-11-09T07:51:42.919Z,18.73
2022-11-09T07:52:44.587Z,19.08
2022-11-09T07:53:46.281Z,19.22
2022-11-09T07:54:51.979Z,19.35
2022-11-09T07:56:01.781Z,19.63
2022-11-09T07:57:03.561Z,19.82
2022-11-09T07:58:11.722Z,19.98
2022-11-09T07:59:13.382Z,20.29
2022-11-09T08:00:19.842Z,20.32
2022-11-09T08:01:24.241Z,20.25
2022-11-09T08:02:26.015Z,20.41
2022-11-09T08:03:27.982Z,20.46
2022-11-09T08:04:29.714Z,20.33
2022-11-09T08:05:31.887Z,20.35
2022-11-09T08:06:33.806Z,20.49
2022-11-09T08:07:35.547Z,20.73
2022-11-09T08:08:37.236Z,20.83
2022-11-09T08:09:38.906Z,20.85
2022-11-09T08:10:40.648Z,20.97
2022-11-09T08:11:42.283Z,21.10
2022-11-09T08:12:43.916Z,21.28
2022-11-09T08:13:45.693Z,21.54
2022-11-09T08:14:47.370Z,21.64
2022-11-09T08:15:49.567Z,21.75
2022-11-09T08:16:51.257Z,21.80
2022-11-09T08:17:53.315Z,21.80
2022-11-09T08:18:54.990Z,21.94
2022-11-09T08:19:56.659Z,22.01
2022-11-09T08:21:02.287Z,22.04
2022-11-09T08:22:03.943Z,22.09
2022-11-09T08:23:06.915Z,22.10
2022-11-09T08:24:08.817Z,22.40
2022-11-09T08:25:11.291Z,22.65
2022-11-09T08:26:13.054Z,22.88
2022-11-09T08:27:14.708Z,23.01
2022-11-09T08:28:16.590Z,23.18
2022-11-09T08:29:18.460Z,23.39
2022-11-09T08:30:21.543Z,23.52
2022-11-09T08:31:23.310Z,23.60
2022-11-09T08:32:24.955Z,23.58
2022-11-09T08:33:28.565Z,23.11
2022-11-09T08:34:30.210Z,22.78
2022-11-09T08:35:32.088Z,22.83
2022-11-09T08:36:36.277Z,23.01
2022-11-09T08:37:38.908Z,23.33
2022-11-09T08:38:41.715Z,23.61
2022-11-09T08:39:43.403Z,23.72
2022-11-09T08:40:45.076Z,23.75
2022-11-09T08:41:46.750Z,24.01
2022-11-09T08:42:48.497Z,24.14
2022-11-09T08:43:50.179Z,24.29
2022-11-09T08:44:51.834Z,24.52
2022-11-09T08:45:53.936Z,24.66
2022-11-09T08:46:55.566Z,24.78
2022-11-09T08:47:59.082Z,24.98
2022-11-09T08:49:00.818Z,25.24
2022-11-09T08:50:04.638Z,25.45
2022-11-09T08:51:06.432Z,25.51
2022-11-09T08:52:08.156Z,25.62
2022-11-09T08:53:09.800Z,25.75
2022-11-09T08:54:13.636Z,25.76
2022-11-09T08:55:15.325Z,25.67
2022-11-09T08:56:19.164Z,25.79
2022-11-09T08:57:20.813Z,25.94
2022-11-09T08:58:22.873Z,25.98
2022-11-09T08:59:24.819Z,26.05
2022-11-09T09:00:27.267Z,25.83
2022-11-09T09:01:29.067Z,26.01
2022-11-09T09:02:30.848Z,26.14
2022-11-09T09:03:32.516Z,26.19
2022-11-09T09:04:34.192Z,26.17
2022-11-09T09:05:36.698Z,26.37
2022-11-09T09:06:38.569Z,26.27
2022-11-09T09:07:40.344Z,26.43
2022-11-09T09:08:41.994Z,26.49
2022-11-09T09:09:44.763Z,26.46
2022-11-09T09:10:46.406Z,26.51
2022-11-09T09:11:48.056Z,26.55
2022-11-09T09:12:49.712Z,26.43
2022-11-09T09:13:51.367Z,26.22
2022-11-09T09:14:53.041Z,25.54
2022-11-09T09:15:54.682Z,25.14
2022-11-09T09:16:56.808Z,24.77
2022-11-09T09:18:02.377Z,24.68
2022-11-09T09:19:04.898Z,24.56
2022-11-09T09:20:07.135Z,24.56
2022-11-09T09:21:10.440Z,24.64
2022-11-09T09:22:12.481Z,24.88
2022-11-09T09:23:15.395Z,25.07
2022-11-09T09:24:17.389Z,25.07
2022-11-09T09:25:19.034Z,25.21
2022-11-09T09:26:20.848Z,25.20
2022-11-09T09:27:22.537Z,25.03
2022-11-09T09:28:24.224Z,25.10
2022-11-09T09:29:25.936Z,25.25
2022-11-09T09:30:27.662Z,25.09
2022-11-09T09:31:29.323Z,25.24
2022-11-09T09:32:30.988Z,25.42
2022-11-09T09:33:32.770Z,25.53
2022-11-09T09:34:34.443Z,25.66
2022-11-09T09:35:36.176Z,25.47
2022-11-09T09:36:42.041Z,25.56
2022-11-09T09:37:46.553Z,25.80
2022-11-09T09:38:52.721Z,25.94
2022-11-09T09:39:54.356Z,25.90
2022-11-09T09:41:05.983Z,25.82
2022-11-09T09:42:14.376Z,25.86
2022-11-09T09:43:26.016Z,25.97
2022-11-09T09:44:35.373Z,26.01
2022-11-09T09:45:49.162Z,25.97
2022-11-09T09:46:59.214Z,25.92
2022-11-09T09:48:04.739Z,25.84
2022-11-09T09:49:14.807Z,25.94
2022-11-09T09:50:23.071Z,26.05
2022-11-09T09:51:29.489Z,26.15
2022-11-09T09:53:22.318Z,26.28
2022-11-09T09:54:30.673Z,26.27
2022-11-09T09:55:39.047Z,26.32
2022-11-09T09:56:44.246Z,26.47
2022-11-09T09:57:54.359Z,26.59
2022-11-09T09:59:28.080Z,26.37
2022-11-09T10:00:33.399Z,26.26
2022-11-09T10:01:41.409Z,25.87
2022-11-09T10:02:43.398Z,25.45
2022-11-09T10:03:45.050Z,25.38
2022-11-09T10:04:47.190Z,25.28
2022-11-09T10:05:58.602Z,25.20
2022-11-09T10:07:00.446Z,25.25
2022-11-09T10:08:16.192Z,25.38
2022-11-09T10:09:23.851Z,25.39
2022-11-09T10:11:03.897Z,25.23
2022-11-09T10:12:23.118Z,25.32
2022-11-09T10:13:50.627Z,25.33
2022-11-09T10:15:13.916Z,25.36
2022-11-09T10:16:29.624Z,25.14
2022-11-09T10:17:49.838Z,25.36
2022-11-09T10:18:54.245Z,25.58
2022-11-09T10:20:24.078Z,25.72
2022-11-09T10:21:37.716Z,25.85
2022-11-09T10:23:14.710Z,26.01
2022-11-09T10:24:36.776Z,26.04
2022-11-09T10:27:02.918Z,26.10
2022-11-09T10:28:13.259Z,25.74
2022-11-09T10:29:24.454Z,25.16
2022-11-09T10:30:26.672Z,24.55
2022-11-09T10:31:32.861Z,24.31
2022-11-09T10:32:35.092Z,24.01
2022-11-09T10:33:37.177Z,24.01
2022-11-09T10:35:03.173Z,24.14
2022-11-09T10:36:25.073Z,23.93
2022-11-09T10:37:37.087Z,23.27
2022-11-09T10:38:47.226Z,23.30
2022-11-09T10:40:05.537Z,23.43
2022-11-09T10:41:39.817Z,23.43
2022-11-09T10:42:56.074Z,23.66
2022-11-09T10:43:57.842Z,23.69
2022-11-09T10:45:02.248Z,23.63
2022-11-09T10:46:06.602Z,23.82
2022-11-09T10:47:16.821Z,23.92
2022-11-09T10:48:31.169Z,24.17
2022-11-09T10:49:34.298Z,24.11
2022-11-09T10:50:47.925Z,23.78
2022-11-09T10:51:49.713Z,23.74
2022-11-09T10:52:51.612Z,23.77
2022-11-09T10:54:23.507Z,23.80
2022-11-09T10:55:29.006Z,23.77
2022-11-09T10:57:05.148Z,23.82
2022-11-09T10:58:18.164Z,23.84
2022-11-09T10:59:44.713Z,23.65
2022-11-09T11:01:15.682Z,23.47
2022-11-09T11:02:29.042Z,23.46
2022-11-09T11:03:35.448Z,23.45
2022-11-09T11:04:37.145Z,23.43
2022-11-09T11:05:39.904Z,23.39
2022-11-09T11:06:41.627Z,23.34
2022-11-09T11:07:43.683Z,23.28
2022-11-09T11:09:07.538Z,23.17
2022-11-09T11:10:10.302Z,23.13
2022-11-09T11:11:33.104Z,22.84
2022-11-09T11:12:36.338Z,22.50
2022-11-09T11:13:38.008Z,22.36
2022-11-09T11:14:44.640Z,22.15
2022-11-09T11:15:46.808Z,21.70
2022-11-09T11:16:50.857Z,21.41
2022-11-09T11:18:02.151Z,21.20
2022-11-09T11:19:04.711Z,20.93
2022-11-09T11:20:31.018Z,20.94
2022-11-09T11:21:32.678Z,20.82
2022-11-09T11:22:34.387Z,20.75
2022-11-09T11:23:37.121Z,20.81
2022-11-09T11:24:51.836Z,20.79
2022-11-09T11:25:53.430Z,20.79
2022-11-09T11:27:10.210Z,20.73
2022-11-09T11:28:24.445Z,20.49
2022-11-09T11:29:52.325Z,20.16
2022-11-09T11:30:54.022Z,20.26
2022-11-09T11:31:55.751Z,20.31
2022-11-09T11:32:58.073Z,20.06
2022-11-09T11:34:01.006Z,19.92
2022-11-09T11:35:18.173Z,19.68
2022-11-09T11:36:26.074Z,19.79
2022-11-09T11:37:37.947Z,19.84
2022-11-09T11:38:45.667Z,19.90
2022-11-09T11:40:04.345Z,19.97
2022-11-09T11:41:28.065Z,19.92
2022-11-09T11:43:03.736Z,19.89
2022-11-09T11:44:20.657Z,19.83
2022-11-09T11:45:41.832Z,19.73
2022-11-09T11:46:54.417Z,19.58
2022-11-09T11:48:14.019Z,19.57
2022-11-09T11:49:30.695Z,19.69
2022-11-09T11:50:44.503Z,19.78
2022-11-09T11:52:27.720Z,19.82
2022-11-09T11:53:51.427Z,19.51
2022-11-09T11:55:23.416Z,19.40
2022-11-09T11:56:36.962Z,19.19
2022-11-09T11:58:16.703Z,18.91
2022-11-09T11:59:55.976Z,19.03
2022-11-09T12:01:00.250Z,19.04
2022-11-09T12:02:23.921Z,18.98
2022-11-09T12:03:59.344Z,18.98
2022-11-09T12:05:09.737Z,18.86
2022-11-09T12:06:35.145Z,18.77
2022-11-09T12:07:58.720Z,18.74
2022-11-09T12:09:06.345Z,18.66
2022-11-09T12:10:28.070Z,18.68
2022-11-09T12:11:57.375Z,18.73
2022-11-09T12:13:11.095Z,18.64
2022-11-09T12:14:18.748Z,18.66
2022-11-09T12:15:23.443Z,18.65
2022-11-09T12:16:34.258Z,18.60
2022-11-09T12:17:44.904Z,18.51
2022-11-09T12:19:25.452Z,18.42
2022-11-09T12:20:41.340Z,18.27
2022-11-09T12:21:59.538Z,18.14
2022-11-09T12:23:30.174Z,18.16
2022-11-09T12:24:55.257Z,18.22
2022-11-09T12:26:33.657Z,18.26
2022-11-09T12:27:53.435Z,18.33
2022-11-09T12:29:07.199Z,18.28
2022-11-09T12:30:16.669Z,18.21
2022-11-09T12:31:36.692Z,18.22
2022-11-09T12:32:53.487Z,18.24
2022-11-09T12:34:03.186Z,18.24
2022-11-09T12:35:21.022Z,18.27
2022-11-09T12:36:29.165Z,18.29
2022-11-09T12:37:39.332Z,18.18
2022-11-09T12:39:20.477Z,18.11
2022-11-09T12:41:02.418Z,18.17
2022-11-09T12:42:06.463Z,18.17
2022-11-09T12:43:11.122Z,18.13
2022-11-09T12:44:22.028Z,18.10
2022-11-09T12:45:32.801Z,18.14
2022-11-09T12:46:40.341Z,18.12
2022-11-09T12:47:44.372Z,18.11
2022-11-09T12:48:48.432Z,18.15
2022-11-09T12:49:51.282Z,18.19
2022-11-09T12:50:53.919Z,18.23
2022-11-09T12:51:58.933Z,18.33
2022-11-09T12:53:03.760Z,18.36
2022-11-09T12:54:11.488Z,18.31
2022-11-09T12:55:19.914Z,18.34
2022-11-09T12:56:40.480Z,18.18
2022-11-09T12:57:46.224Z,18.08
2022-11-09T12:58:47.968Z,18.13
2022-11-09T12:59:58.153Z,18.13
2022-11-09T13:01:12.464Z,18.07
2022-11-09T13:02:23.715Z,17.99
2022-11-09T13:03:27.610Z,17.97
2022-11-09T13:04:29.841Z,17.93
2022-11-09T13:05:37.814Z,17.92
2022-11-09T13:06:39.702Z,17.81
2022-11-09T13:07:49.908Z,17.79
2022-11-09T13:09:01.562Z,17.87
2022-11-09T13:10:04.309Z,17.85
2022-11-09T13:11:48.785Z,17.80
2022-11-09T13:12:50.483Z,17.68
2022-11-09T13:13:52.128Z,17.65
2022-11-09T13:14:54.008Z,17.65
2022-11-09T13:16:33.346Z,17.61
2022-11-09T13:17:37.752Z,17.63
2022-11-09T13:18:45.483Z,17.61
2022-11-09T13:19:48.552Z,17.61
2022-11-09T13:20:56.980Z,17.55
2022-11-09T13:21:59.360Z,17.56
2022-11-09T13:23:41.584Z,17.57
2022-11-09T13:25:02.186Z,17.51
2022-11-09T13:26:05.268Z,17.49
2022-11-09T13:27:29.668Z,17.58
2022-11-09T13:28:31.274Z,17.61
2022-11-09T13:29:42.067Z,17.63
2022-11-09T13:30:43.925Z,17.52
2022-11-09T13:32:04.205Z,17.57
2022-11-09T13:33:05.776Z,17.61
2022-11-09T13:34:39.639Z,17.59
2022-11-09T13:35:41.220Z,17.56
2022-11-09T13:36:42.908Z,17.50
2022-11-09T13:37:48.180Z,17.55
2022-11-09T13:39:28.131Z,17.50
2022-11-09T13:40:32.800Z,17.49
2022-11-09T13:41:34.443Z,17.52
2022-11-09T13:42:36.952Z,17.49
2022-11-09T13:43:40.811Z,17.44
2022-11-09T13:44:44.626Z,17.47
2022-11-09T13:46:05.079Z,17.47
2022-11-09T13:47:22.142Z,17.40
2022-11-09T13:48:29.948Z,17.46
2022-11-09T13:49:45.424Z,17.50
2022-11-09T13:50:56.533Z,17.51
2022-11-09T13:51:58.464Z,17.53
2022-11-09T13:53:01.510Z,17.54
2022-11-09T13:54:05.635Z,17.60
2022-11-09T13:55:27.222Z,17.64
2022-11-09T13:56:37.676Z,17.61
2022-11-09T13:57:40.582Z,17.64
2022-11-09T13:58:43.298Z,17.54
2022-11-09T13:59:49.439Z,17.42
2022-11-09T14:00:51.074Z,17.36
2022-11-09T14:01:55.336Z,17.40
2022-11-09T14:03:06.785Z,17.47
2022-11-09T14:04:22.121Z,17.49
2022-11-09T14:05:38.698Z,17.43
2022-11-09T14:06:40.479Z,17.39
2022-11-09T14:07:42.207Z,17.44
2022-11-09T14:08:44.133Z,17.45
2022-11-09T14:10:11.543Z,17.44
2022-11-09T14:11:33.292Z,17.48
2022-11-09T14:12:53.171Z,17.47
2022-11-09T14:14:53.530Z,17.46
2022-11-09T14:16:08.528Z,17.40
2022-11-09T14:17:19.140Z,17.42